Aviation Digital Data Service (ADDS)

Output produced by METARs form (2055 UTC 29 August 2015)
found at http://aviationweather.gov/adds/metars/
 
KSFO 291736Z 2918/3024 VRB06KT P6SM FEW008 SCT024 BKN035 
     TEMPO 2918/2920 FEW007 BKN020 BKN030 
     FM292100 27011KT P6SM FEW010 FEW030 FEW250 
     FM292300 27016G24KT P6SM FEW012 FEW250 
     FM300400 27011KT P6SM FEW012 FEW250 
     FM300600 27009KT P6SM BKN012 
     FM301730 27011KT P6SM FEW010 
     FM302100 27020G28KT P6SM FEW012